Terminal Aerodrome Forecast
Issued by NWS

Home | Current Version | Previous Version | Text Only | Print | Product List | Glossary On
Versions: 1 2 3 4 5 6 7 8 9 10 11 12 13 14 15 16 17 18 19
741
FTUS46 KLOX 201123
TAFSBA
TAF
KSBA 201123Z 2012/2112 VRB03KT P6SM OVC010
     FM201700 16007KT P6SM OVC018
     FM202000 25008KT P6SM SCT020
     FM210500 VRB03KT P6SM OVC015=

USA.gov is the U.S. government's official web portal to all federal, state and local government web resources and services.